Time;durP1;ratioP1;P1;durP2;ratioP2;P2;SDS_P1;SDS_P2;PMS_P1;PMS_P2;Temp;Humidity;BMP_temperature;BMP_pressure;BME280_temperature;BME280_humidity;BME280_pressure;Samples;Min_cycle;Max_cycle;Signal;HPM_P1;HPM_P2
2022/05/14 00:01:00;;;;;;;15.63;6.73;;;;;;;9.36;93.16;99956.41;4240046;28;21009;-70
2022/05/14 00:03:28;;;;;;;9.70;6.27;;;;;;;9.30;92.28;99957.84;4227517;28;22955;-72
2022/05/14 00:05:56;;;;;;;8.53;5.87;;;;;;;9.33;93.29;99954.06;4225716;28;20222;-73
2022/05/14 00:08:23;;;;;;;13.87;6.53;;;;;;;9.33;92.37;99954.88;4239207;28;20309;-71
2022/05/14 00:13:36;;;;;;;11.07;6.20;;;;;;;9.21;93.08;99954.25;4233043;28;20230;-71
2022/05/14 00:16:03;;;;;;;12.70;6.40;;;;;;;9.19;93.18;99961.53;4244271;28;21652;-71
2022/05/14 00:18:30;;;;;;;11.23;6.70;;;;;;;9.12;93.70;99962.28;4239625;28;20227;-71
2022/05/14 00:20:57;;;;;;;14.27;6.80;;;;;;;9.08;93.88;99969.69;4236131;28;21093;-71
2022/05/14 00:23:23;;;;;;;13.77;7.20;;;;;;;9.07;93.42;99960.88;4233680;28;20227;-73
2022/05/14 00:25:51;;;;;;;11.43;6.97;;;;;;;9.00;93.72;99965.09;4238826;28;20249;-70
2022/05/14 00:28:17;;;;;;;14.00;7.40;;;;;;;8.90;94.70;99959.03;4235994;28;23217;-73
2022/05/14 00:30:44;;;;;;;15.13;7.47;;;;;;;8.96;94.61;99963.72;4241373;28;20265;-69
2022/05/14 00:33:11;;;;;;;16.70;7.23;;;;;;;8.88;95.15;99956.50;4251638;28;20234;-71
2022/05/14 00:35:38;;;;;;;14.73;8.13;;;;;;;8.81;95.37;99960.72;4215318;28;20227;-69
2022/05/14 00:38:06;;;;;;;13.57;8.43;;;;;;;8.82;95.65;99957.06;4238468;28;21432;-70
2022/05/14 00:40:35;;;;;;;15.20;8.97;;;;;;;8.88;96.05;99961.81;4241659;28;21729;-69
2022/05/14 00:43:02;;;;;;;20.40;10.47;;;;;;;8.76;96.81;99962.97;4240697;28;20238;-69
2022/05/14 00:45:30;;;;;;;18.67;10.70;;;;;;;8.73;97.92;99962.41;4246892;28;20234;-70
2022/05/14 00:47:59;;;;;;;17.83;10.33;;;;;;;8.70;98.50;99968.84;4221410;28;20238;-67
2022/05/14 00:50:34;;;;;;;15.67;11.43;;;;;;;8.76;97.91;99973.59;4233137;28;20331;-47
2022/05/14 00:53:05;;;;;;;19.27;11.40;;;;;;;8.70;98.77;99963.53;4233571;28;20237;-69
2022/05/14 00:55:31;;;;;;;20.00;11.47;;;;;;;8.66;99.86;99967.47;4243179;28;20234;-69
2022/05/14 00:58:00;;;;;;;17.00;11.23;;;;;;;8.68;99.63;99970.81;4238754;28;22476;-67
2022/05/14 01:00:29;;;;;;;18.07;11.83;;;;;;;8.75;99.58;99971.91;4240313;28;22826;-68
2022/05/14 01:02:58;;;;;;;13.90;10.20;;;;;;;8.76;99.74;99964.81;4229849;28;20230;-69
2022/05/14 01:05:25;;;;;;;16.87;11.10;;;;;;;8.75;100.00;99966.59;4239806;28;20235;-68
2022/05/14 01:07:53;;;;;;;15.47;10.40;;;;;;;8.72;100.00;99966.91;4242462;28;21217;-68
2022/05/14 01:10:23;;;;;;;14.33;9.90;;;;;;;8.81;100.00;99966.03;4243167;28;20242;-78
2022/05/14 01:12:52;;;;;;;14.90;9.97;;;;;;;8.84;100.00;99956.94;4247301;28;20232;-68
2022/05/14 01:15:21;;;;;;;15.30;9.30;;;;;;;8.83;100.00;99958.75;4236498;28;20249;-69
2022/05/14 01:17:48;;;;;;;14.00;9.10;;;;;;;9.00;99.76;99953.66;4242889;28;22129;-68
2022/05/14 01:20:16;;;;;;;12.83;8.77;;;;;;;9.04;98.94;99955.06;4237660;28;20298;-70
2022/05/14 01:22:56;;;;;;;14.50;8.80;;;;;;;8.97;99.04;99959.28;4239113;28;20285;-70
2022/05/14 01:28:15;;;;;;;17.50;10.50;;;;;;;8.71;100.00;99954.63;4246558;28;21832;-68
2022/05/14 01:30:57;;;;;;;14.93;9.73;;;;;;;8.66;100.00;99957.72;4232545;28;20290;-70
2022/05/14 01:33:23;;;;;;;15.77;9.87;;;;;;;8.66;100.00;99963.00;4233983;28;22949;-69
2022/05/14 01:35:50;;;;;;;15.13;10.50;;;;;;;8.70;100.00;99960.91;4249261;28;20249;-69
2022/05/14 01:38:18;;;;;;;14.33;8.83;;;;;;;8.63;100.00;99959.81;4234273;28;20231;-68
2022/05/14 01:40:45;;;;;;;16.20;10.40;;;;;;;8.53;100.00;99951.88;4227404;28;23792;-69
2022/05/14 01:43:11;;;;;;;16.47;10.30;;;;;;;8.51;100.00;99958.31;4240464;28;20246;-69
2022/05/14 01:45:38;;;;;;;14.60;10.53;;;;;;;8.44;100.00;99950.91;4249125;28;21109;-69
2022/05/14 01:48:05;;;;;;;16.57;10.73;;;;;;;8.42;100.00;99946.72;4252826;28;20774;-69
2022/05/14 01:50:32;;;;;;;17.00;11.07;;;;;;;8.47;100.00;99949.78;4235188;28;20277;-69
2022/05/14 01:52:59;;;;;;;15.27;10.70;;;;;;;8.53;100.00;99948.41;4234177;28;20232;-68
2022/05/14 01:55:25;;;;;;;15.47;9.97;;;;;;;8.43;100.00;99961.69;4238094;28;20607;-68
2022/05/14 01:57:52;;;;;;;14.43;10.70;;;;;;;8.35;100.00;99964.16;4237809;28;21202;-68
2022/05/14 02:00:21;;;;;;;14.13;10.53;;;;;;;8.22;100.00;99953.88;4238853;28;20486;-69
2022/05/14 02:02:48;;;;;;;17.83;10.77;;;;;;;8.19;100.00;99955.00;4237191;28;20230;-69
2022/05/14 02:05:15;;;;;;;20.37;11.30;;;;;;;8.16;100.00;99954.44;4238289;28;20267;-68
2022/05/14 02:07:42;;;;;;;15.73;10.97;;;;;;;8.14;100.00;99956.38;4238534;28;20308;-68
2022/05/14 02:10:10;;;;;;;16.93;10.97;;;;;;;8.16;100.00;99970.31;4234707;28;20240;-71
2022/05/14 02:12:37;;;;;;;14.07;10.07;;;;;;;8.12;100.00;99963.63;4216931;28;20231;-68
2022/05/14 02:15:04;;;;;;;15.93;10.77;;;;;;;8.02;100.00;99953.88;4245997;28;20637;-69
2022/05/14 02:17:31;;;;;;;18.93;11.03;;;;;;;7.99;100.00;99948.03;4233381;28;21208;-68
2022/05/14 02:19:57;;;;;;;13.40;9.93;;;;;;;8.15;100.00;99950.13;4222914;28;20379;-68
2022/05/14 02:22:24;;;;;;;15.77;10.33;;;;;;;8.23;100.00;99955.53;4241348;28;21072;-68
2022/05/14 02:24:50;;;;;;;16.63;10.40;;;;;;;8.27;100.00;99961.41;4234179;28;20239;-68
2022/05/14 02:27:17;;;;;;;14.53;9.10;;;;;;;8.35;100.00;99962.34;4252921;28;20588;-69
2022/05/14 02:29:56;;;;;;;13.57;9.30;;;;;;;8.29;100.00;99965.56;4235812;28;20239;-68
2022/05/14 02:32:25;;;;;;;20.50;9.30;;;;;;;8.31;100.00;99955.66;4222189;28;20796;-67
2022/05/14 02:34:51;;;;;;;14.97;9.37;;;;;;;8.34;100.00;99951.91;4229923;28;20373;-68
2022/05/14 02:37:20;;;;;;;18.07;9.77;;;;;;;8.42;100.00;99966.13;4220576;28;20237;-69
2022/05/14 02:39:46;;;;;;;15.33;8.93;;;;;;;8.44;99.59;99956.22;4229370;28;20329;-68
2022/05/14 02:42:13;;;;;;;17.43;8.20;;;;;;;8.42;99.84;99955.53;4251801;28;20381;-67
2022/05/14 02:44:40;;;;;;;13.70;7.80;;;;;;;8.52;99.11;99959.97;4226827;28;20239;-68
2022/05/14 02:47:06;;;;;;;14.03;8.40;;;;;;;8.44;99.27;99948.25;4220373;28;20234;-69
2022/05/14 02:49:33;;;;;;;20.70;8.97;;;;;;;8.46;99.41;99945.47;4254570;28;20238;-69
2022/05/14 02:51:59;;;;;;;14.27;8.17;;;;;;;8.50;99.48;99943.34;4228662;28;21670;-68
2022/05/14 02:54:26;;;;;;;14.60;8.20;;;;;;;8.58;98.69;99948.78;4238317;28;21600;-70
2022/05/14 02:56:53;;;;;;;14.27;7.73;;;;;;;8.59;98.44;99953.97;4233482;28;22108;-68
2022/05/14 02:59:20;;;;;;;14.30;7.33;;;;;;;8.63;97.96;99959.81;4250529;28;25524;-69
2022/05/14 03:01:49;;;;;;;15.53;7.47;;;;;;;8.65;97.91;99960.50;4230794;28;21203;-68
2022/05/14 03:04:18;;;;;;;15.40;7.70;;;;;;;8.64;97.85;99954.38;4239392;28;21893;-69
2022/05/14 03:06:45;;;;;;;15.63;7.87;;;;;;;8.73;98.26;99970.38;4233245;28;20489;-68
2022/05/14 03:09:11;;;;;;;14.37;8.10;;;;;;;8.78;97.46;99966.31;4260632;28;22405;-67
2022/05/14 03:11:38;;;;;;;11.73;7.17;;;;;;;8.84;96.96;99957.78;4253506;28;20246;-68
2022/05/14 03:14:05;;;;;;;15.20;7.33;;;;;;;8.90;96.28;99963.47;4245291;28;20253;-68
2022/05/14 03:16:31;;;;;;;16.93;6.90;;;;;;;8.93;96.16;99968.50;4262200;28;21919;-68
2022/05/14 03:18:58;;;;;;;13.50;7.73;;;;;;;8.95;96.51;99969.19;4247938;28;20297;-68
2022/05/14 03:21:25;;;;;;;13.60;7.30;;;;;;;8.96;95.97;99969.03;4237064;28;20290;-68
2022/05/14 03:23:51;;;;;;;15.77;6.90;;;;;;;8.96;96.77;99954.94;4241519;28;20239;-68
2022/05/14 03:26:18;;;;;;;13.70;7.17;;;;;;;8.95;96.57;99956.75;4254311;28;20233;-68
2022/05/14 03:28:46;;;;;;;10.13;6.73;;;;;;;9.01;96.43;99964.16;4240715;28;20298;-70
2022/05/14 03:31:13;;;;;;;13.67;7.33;;;;;;;9.02;96.20;99975.59;4251943;28;20282;-69
2022/05/14 03:33:39;;;;;;;16.47;6.87;;;;;;;9.04;95.92;99977.13;4241055;28;20676;-68
2022/05/14 03:36:06;;;;;;;15.57;6.90;;;;;;;9.05;96.30;99969.97;4238134;28;20682;-67
2022/05/14 03:38:33;;;;;;;12.97;7.63;;;;;;;9.10;95.77;99970.38;4258682;28;20240;-68
2022/05/14 03:40:59;;;;;;;14.33;7.37;;;;;;;9.18;95.81;99967.84;4232105;28;20298;-69
2022/05/14 03:43:26;;;;;;;11.77;6.57;;;;;;;9.20;95.50;99970.31;4242326;28;20234;-69
2022/05/14 03:45:53;;;;;;;12.40;6.33;;;;;;;9.27;94.95;99972.25;4234253;28;20238;-69
2022/05/14 03:48:19;;;;;;;18.47;6.57;;;;;;;9.22;94.89;99984.28;4246403;28;20228;-68
2022/05/14 03:50:46;;;;;;;14.97;6.73;;;;;;;9.20;95.57;99987.09;4238662;28;20244;-67
2022/05/14 03:53:13;;;;;;;14.63;6.70;;;;;;;9.22;95.63;99984.28;4272509;28;20223;-68
2022/05/14 03:55:40;;;;;;;12.63;6.40;;;;;;;9.33;94.70;99986.75;4241448;28;20287;-69
2022/05/14 03:58:06;;;;;;;10.07;5.17;;;;;;;9.33;94.19;99977.94;4234044;28;20327;-68
2022/05/14 04:00:34;;;;;;;13.13;6.00;;;;;;;9.36;94.11;99980.31;4237874;28;25164;-68
2022/05/14 04:03:02;;;;;;;10.17;5.27;;;;;;;9.39;94.19;99972.88;4250780;28;20221;-68
2022/05/14 04:05:28;;;;;;;13.00;6.40;;;;;;;9.47;93.45;99974.78;4235846;28;21053;-67
2022/05/14 04:07:58;;;;;;;7.60;5.87;;;;;;;9.49;93.58;99980.78;4239508;28;20237;-69
2022/05/14 04:10:24;;;;;;;11.20;6.07;;;;;;;9.60;93.16;99972.63;4239146;28;20258;-69
2022/05/14 04:12:51;;;;;;;12.13;5.60;;;;;;;9.69;92.48;99970.84;4235186;28;20254;-67
2022/05/14 04:15:18;;;;;;;14.13;6.33;;;;;;;9.71;91.37;99964.41;4238939;28;20235;-69
2022/05/14 04:17:44;;;;;;;17.10;5.93;;;;;;;9.78;91.91;99964.66;4239549;28;20306;-69
2022/05/14 04:20:11;;;;;;;8.80;5.37;;;;;;;9.97;90.98;99958.34;4253656;28;22628;-69
2022/05/14 04:22:44;;;;;;;13.17;5.60;;;;;;;10.14;89.66;99960.16;4229415;28;20261;-69
2022/05/14 04:25:11;;;;;;;16.57;6.17;;;;;;;10.14;90.36;99967.31;4245227;28;20746;-69
2022/05/14 04:27:41;;;;;;;11.33;5.47;;;;;;;10.17;89.97;99969.66;4235325;28;20237;-70
2022/05/14 04:30:09;;;;;;;14.27;5.70;;;;;;;10.19;89.55;99970.34;4249282;28;20333;-69
2022/05/14 04:32:37;;;;;;;16.77;6.23;;;;;;;10.01;90.41;99972.16;4253636;28;20230;-70
2022/05/14 04:35:04;;;;;;;15.53;6.60;;;;;;;9.99;90.94;99971.47;4254862;28;20493;-69
2022/05/14 04:37:31;;;;;;;13.03;5.90;;;;;;;10.00;90.54;99962.53;4244968;28;22393;-69
2022/05/14 04:39:57;;;;;;;11.97;5.90;;;;;;;10.12;90.73;99967.44;4252501;28;20290;-70
2022/05/14 04:42:24;;;;;;;16.23;6.00;;;;;;;10.01;90.87;99970.34;4258718;28;20233;-69
2022/05/14 04:44:51;;;;;;;18.23;7.17;;;;;;;10.00;91.17;99966.03;4237341;28;22097;-70
2022/05/14 04:47:17;;;;;;;13.20;5.97;;;;;;;10.11;90.79;99964.94;4254422;28;20222;-69
2022/05/14 04:49:48;;;;;;;10.53;5.90;;;;;;;10.08;90.77;99966.06;4230291;28;20227;-70
2022/05/14 04:52:16;;;;;;;10.30;5.67;;;;;;;10.15;91.15;99961.00;4255504;28;20226;-68
2022/05/14 04:54:42;;;;;;;15.60;6.47;;;;;;;10.25;90.45;99961.72;4242784;28;20231;-70
2022/05/14 04:57:09;;;;;;;13.17;5.60;;;;;;;10.38;90.42;99960.53;4240457;28;20280;-68
2022/05/14 04:59:36;;;;;;;10.73;5.57;;;;;;;10.50;89.78;99968.09;4228760;28;20349;-70
2022/05/14 05:04:49;;;;;;;18.93;6.00;;;;;;;10.61;88.72;99960.84;4251852;28;20471;-68
2022/05/14 05:07:16;;;;;;;11.27;5.93;;;;;;;10.59;88.81;99958.34;4249514;28;20231;-69
2022/05/14 05:09:42;;;;;;;10.60;5.80;;;;;;;10.62;87.88;99973.16;4256024;28;20244;-71
2022/05/14 05:12:09;;;;;;;12.90;6.00;;;;;;;10.60;88.19;99970.66;4247308;28;22718;-70
2022/05/14 05:14:36;;;;;;;11.80;5.80;;;;;;;10.60;88.02;99969.81;4246985;28;21206;-70
2022/05/14 05:17:03;;;;;;;12.73;5.50;;;;;;;10.46;89.87;99969.38;4247345;28;20231;-69
2022/05/14 05:19:30;;;;;;;14.03;6.27;;;;;;;10.42;89.73;99965.41;4242575;28;20290;-70
2022/05/14 05:21:57;;;;;;;9.80;5.30;;;;;;;10.46;89.27;99974.72;4235528;28;21794;-69
2022/05/14 05:24:23;;;;;;;13.63;6.00;;;;;;;10.45;89.11;99981.03;4235369;28;20381;-69
2022/05/14 05:26:50;;;;;;;12.37;5.80;;;;;;;10.51;88.74;99969.78;4238598;28;20233;-70
2022/05/14 05:29:18;;;;;;;15.10;5.80;;;;;;;10.57;88.88;99969.13;4242147;28;20234;-70
2022/05/14 05:31:44;;;;;;;11.50;5.40;;;;;;;10.61;88.36;99958.19;4247647;28;20245;-70
2022/05/14 05:34:11;;;;;;;11.93;5.20;;;;;;;10.67;87.81;99949.56;4227535;28;21572;-68
2022/05/14 05:36:38;;;;;;;12.57;5.20;;;;;;;10.84;87.31;99956.66;4235814;28;20239;-69
2022/05/14 05:39:04;;;;;;;15.53;5.00;;;;;;;10.89;87.30;99948.22;4241310;28;21723;-70
2022/05/14 05:41:31;;;;;;;11.00;4.60;;;;;;;10.91;86.66;99939.06;4237726;28;21271;-68
2022/05/14 05:43:57;;;;;;;11.60;4.60;;;;;;;11.09;85.80;99943.44;4234072;28;20631;-68
2022/05/14 05:46:24;;;;;;;12.47;5.20;;;;;;;11.24;84.79;99938.34;4238404;28;20293;-68
2022/05/14 05:48:50;;;;;;;15.63;4.90;;;;;;;11.35;84.30;99928.22;4238211;28;20297;-67
2022/05/14 05:51:17;;;;;;;12.43;5.13;;;;;;;11.63;83.40;99938.59;4233841;28;20233;-68
2022/05/14 05:56:50;;;;;;;8.57;4.90;;;;;;;12.15;80.67;99946.38;4243392;28;20246;-69
2022/05/14 05:59:17;;;;;;;16.07;5.70;;;;;;;12.34;79.20;99936.31;4244169;28;20239;-71
2022/05/14 06:01:44;;;;;;;9.13;4.70;;;;;;;12.63;78.06;99941.13;4247930;28;20233;-69
2022/05/14 06:04:12;;;;;;;12.50;4.33;;;;;;;13.01;76.92;99936.81;4273149;28;20362;-69
2022/05/14 06:06:42;;;;;;;9.67;4.57;;;;;;;13.57;73.21;99933.25;4237796;28;22420;-67
2022/05/14 06:09:12;;;;;;;8.10;3.73;;;;;;;13.42;73.06;99930.50;4255606;28;20545;-70
2022/05/14 06:11:41;;;;;;;11.37;4.40;;;;;;;13.79;71.88;99919.06;4243026;28;20288;-65
2022/05/14 06:14:09;;;;;;;18.07;4.43;;;;;;;14.26;69.77;99935.91;4257000;28;20420;-66
2022/05/14 06:16:36;;;;;;;12.33;4.30;;;;;;;14.70;67.12;99941.34;4246886;28;23962;-64
2022/05/14 06:19:03;;;;;;;12.57;4.10;;;;;;;14.17;68.92;99945.84;4249460;28;20242;-69
2022/05/14 06:21:30;;;;;;;12.07;4.27;;;;;;;13.48;72.48;99956.50;4240026;28;22797;-67
2022/05/14 06:23:56;;;;;;;13.60;4.70;;;;;;;13.18;74.72;99955.44;4247761;28;20218;-67
2022/05/14 06:26:24;;;;;;;14.10;4.67;;;;;;;12.98;74.51;99957.72;4241857;28;20532;-68
2022/05/14 06:28:50;;;;;;;10.30;4.50;;;;;;;12.93;75.85;99955.56;4226520;28;20247;-67
2022/05/14 06:31:17;;;;;;;9.93;4.40;;;;;;;12.76;75.83;99960.13;4240246;28;25178;-66
2022/05/14 06:33:45;;;;;;;14.00;4.93;;;;;;;12.57;76.08;99949.78;4249960;28;25458;-68
2022/05/14 06:36:12;;;;;;;13.63;4.63;;;;;;;12.55;77.27;99950.00;4261866;28;20310;-67
2022/05/14 06:38:39;;;;;;;14.90;4.50;;;;;;;12.57;77.33;99953.31;4265015;28;21648;-66
2022/05/14 06:41:10;;;;;;;8.70;4.63;;;;;;;12.43;77.51;99949.50;4253691;28;20270;-65
2022/05/14 06:43:37;;;;;;;8.43;4.07;;;;;;;12.34;77.05;99947.00;4236391;28;20249;-66
2022/05/14 06:46:04;;;;;;;11.47;4.50;;;;;;;12.41;78.45;99945.34;4254825;28;20226;-65
2022/05/14 06:48:31;;;;;;;13.53;4.97;;;;;;;12.30;77.96;99954.50;4247838;28;20257;-65
2022/05/14 06:51:03;;;;;;;9.63;4.23;;;;;;;12.39;77.80;99950.00;4237207;28;21274;-66
2022/05/14 06:53:30;;;;;;;10.63;4.03;;;;;;;12.29;78.35;99946.66;4253775;28;20246;-68
2022/05/14 06:55:58;;;;;;;9.00;4.43;;;;;;;12.23;79.07;99943.69;4236593;28;28207;-65
2022/05/14 06:58:32;;;;;;;11.67;4.10;;;;;;;12.39;79.32;99950.00;4233352;28;20242;-68
2022/05/14 07:00:59;;;;;;;8.83;4.40;;;;;;;12.55;78.76;99951.78;4245787;28;20846;-65
2022/05/14 07:08:57;;;;;;;11.53;4.50;;;;;;;12.67;78.96;99934.44;4265860;28;22977;-66
2022/05/14 07:11:24;;;;;;;8.87;4.00;;;;;;;12.75;78.65;99941.59;4264160;28;21106;-67
2022/05/14 07:13:51;;;;;;;9.17;4.00;;;;;;;12.88;78.28;99941.91;4252997;28;21292;-65
2022/05/14 07:16:18;;;;;;;13.40;3.83;;;;;;;12.92;78.04;99942.38;4241123;28;20339;-66
2022/05/14 07:18:45;;;;;;;9.20;3.60;;;;;;;13.02;76.75;99946.50;4242633;28;20238;-65
2022/05/14 07:21:11;;;;;;;11.67;4.20;;;;;;;13.26;75.25;99940.22;4240495;28;20299;-67
2022/05/14 07:23:38;;;;;;;10.13;3.53;;;;;;;13.48;74.62;99943.97;4237190;28;22886;-67
2022/05/14 07:26:06;;;;;;;10.83;3.77;;;;;;;13.50;73.78;99939.28;4249418;28;21442;-66
2022/05/14 07:28:34;;;;;;;8.47;3.53;;;;;;;13.68;72.98;99944.34;4237800;28;21005;-68
2022/05/14 07:31:01;;;;;;;9.50;3.73;;;;;;;13.69;72.21;99942.50;4245487;28;20706;-69
2022/05/14 07:33:29;;;;;;;10.50;3.77;;;;;;;13.63;71.50;99940.56;4236642;28;20233;-65
2022/05/14 07:36:06;;;;;;;12.27;3.67;;;;;;;13.75;70.95;99928.44;4258368;28;21028;-70
2022/05/14 07:38:34;;;;;;;7.57;3.27;;;;;;;13.94;70.69;99927.94;4262816;28;21210;-69
2022/05/14 07:41:05;;;;;;;10.73;4.13;;;;;;;14.20;70.23;99937.44;4276439;28;20242;-68
2022/05/14 07:43:33;;;;;;;10.40;3.53;;;;;;;14.26;68.38;99930.53;4240491;28;20230;-68
2022/05/14 07:46:07;;;;;;;8.47;3.67;;;;;;;14.70;67.66;99935.13;4259066;28;23017;-68
2022/05/14 07:48:36;;;;;;;11.70;3.63;;;;;;;15.17;65.27;99929.41;4253217;28;23005;-68
2022/05/14 07:51:05;;;;;;;9.97;4.00;;;;;;;15.50;63.79;99931.63;4249649;28;20235;-69
2022/05/14 07:53:32;;;;;;;8.87;3.90;;;;;;;16.17;62.21;99930.44;4256830;28;21215;-68
2022/05/14 07:55:59;;;;;;;10.83;3.97;;;;;;;16.21;60.74;99937.09;4240292;28;20227;-68
2022/05/14 07:58:27;;;;;;;8.13;3.17;;;;;;;16.34;58.31;99938.22;4228162;28;20414;-69
2022/05/14 08:00:54;;;;;;;11.43;3.97;;;;;;;16.38;57.55;99940.31;4251743;28;21210;-68
2022/05/14 08:03:24;;;;;;;13.03;3.90;;;;;;;15.97;59.63;99937.50;4254944;28;20282;-69
2022/05/14 08:05:51;;;;;;;10.20;3.70;;;;;;;15.68;61.41;99927.69;4258286;28;22996;-69
2022/05/14 08:08:18;;;;;;;12.57;4.40;;;;;;;15.30;63.09;99928.72;4247222;28;21132;-70
2022/05/14 08:10:44;;;;;;;15.07;4.40;;;;;;;14.82;65.05;99920.28;4257807;28;20244;-68
2022/05/14 08:13:15;;;;;;;9.47;4.00;;;;;;;14.52;66.55;99920.25;4243011;28;21542;-70
2022/05/14 08:15:43;;;;;;;13.27;5.17;;;;;;;14.26;68.54;99915.31;4245053;28;20294;-70
2022/05/14 08:18:10;;;;;;;11.63;4.00;;;;;;;14.23;68.07;99910.31;4235866;28;20290;-67
2022/05/14 08:20:39;;;;;;;10.67;3.90;;;;;;;14.11;67.65;99911.75;4255195;28;20232;-69
2022/05/14 08:25:57;;;;;;;8.57;4.47;;;;;;;14.09;67.76;99905.75;4235023;28;20231;-67
2022/05/14 08:28:23;;;;;;;9.93;5.13;;;;;;;14.12;68.58;99906.25;4246559;28;20313;-69
2022/05/14 08:30:50;;;;;;;19.47;4.10;;;;;;;14.21;68.12;99907.00;4246212;28;20284;-68
2022/05/14 08:33:17;;;;;;;9.03;3.93;;;;;;;14.08;67.98;99894.22;4229252;28;20296;-70
2022/05/14 08:35:44;;;;;;;10.87;4.43;;;;;;;13.97;67.55;99894.66;4239784;28;20435;-69
2022/05/14 08:38:11;;;;;;;10.23;3.80;;;;;;;13.86;67.47;99898.59;4259078;28;20324;-68
2022/05/14 08:40:40;;;;;;;13.87;3.83;;;;;;;13.73;67.46;99909.06;4270793;28;20433;-67
2022/05/14 08:43:13;;;;;;;13.40;4.03;;;;;;;13.61;69.03;99911.31;4232271;28;20293;-67
2022/05/14 08:45:40;;;;;;;15.30;4.50;;;;;;;13.62;68.38;99907.63;4226389;28;23073;-67
2022/05/14 08:48:26;;;;;;;10.77;3.87;;;;;;;13.56;69.10;99923.56;4239454;28;20252;-67
2022/05/14 08:51:14;;;;;;;16.47;4.03;;;;;;;13.75;67.71;99928.44;4263384;28;21620;-67
2022/05/14 08:53:42;;;;;;;10.80;3.70;;;;;;;13.90;66.70;99926.63;4240116;28;20226;-71
2022/05/14 08:56:13;;;;;;;12.40;4.07;;;;;;;13.89;65.72;99924.16;4271351;28;20280;-69
2022/05/14 08:59:13;;;;;;;9.03;3.87;;;;;;;14.23;65.69;99928.22;4251904;28;20235;-67
2022/05/14 09:01:42;;;;;;;9.03;3.57;;;;;;;14.44;65.21;99927.50;4236916;28;23477;-68
2022/05/14 09:04:12;;;;;;;16.53;4.30;;;;;;;14.76;64.89;99927.19;4250609;28;20323;-67
2022/05/14 09:06:40;;;;;;;13.07;3.80;;;;;;;14.85;63.95;99929.78;4264061;28;25088;-67
2022/05/14 09:09:09;;;;;;;7.90;3.40;;;;;;;14.93;64.08;99927.00;4262867;28;20908;-72
2022/05/14 09:11:42;;;;;;;15.80;3.67;;;;;;;15.07;61.12;99936.88;4272998;28;20230;-66
2022/05/14 09:14:20;;;;;;;13.43;3.37;;;;;;;15.10;59.37;99924.94;4264869;28;20857;-68
2022/05/14 09:17:20;;;;;;;15.73;2.60;;;;;;;15.19;58.17;99926.50;4238487;28;20238;-69
2022/05/14 09:19:49;;;;;;;8.80;2.60;;;;;;;15.36;57.22;99922.59;4276086;28;20638;-68
2022/05/14 09:22:21;;;;;;;15.43;3.17;;;;;;;15.71;55.08;99930.88;4229561;28;20246;-68
2022/05/14 09:25:05;;;;;;;11.47;2.23;;;;;;;15.76;50.49;99938.34;4236023;28;20271;-69
2022/05/14 09:27:42;;;;;;;11.30;2.30;;;;;;;15.88;51.07;99931.44;4281934;28;20232;-68
2022/05/14 09:30:13;;;;;;;7.60;2.23;;;;;;;15.84;50.69;99938.19;4270818;28;20229;-67
2022/05/14 09:32:43;;;;;;;13.27;2.70;;;;;;;15.87;51.58;99932.44;4245830;28;20234;-67
2022/05/14 09:35:17;;;;;;;11.63;2.63;;;;;;;15.97;49.50;99943.69;4258480;28;20234;-69
2022/05/14 09:37:49;;;;;;;8.03;2.50;;;;;;;15.83;49.04;99949.97;4267082;28;20314;-67
2022/05/14 09:40:25;;;;;;;8.07;2.07;;;;;;;15.98;48.58;99945.34;4258093;28;20235;-68
2022/05/14 09:43:09;;;;;;;8.13;2.13;;;;;;;16.10;47.36;99928.72;4280531;28;21446;-69
2022/05/14 09:45:38;;;;;;;7.13;2.50;;;;;;;15.90;47.84;99942.81;4255132;28;20222;-69
2022/05/14 09:48:32;;;;;;;15.60;2.63;;;;;;;16.12;45.88;99942.78;4292295;28;20228;-69
2022/05/14 09:51:01;;;;;;;11.17;2.10;;;;;;;16.09;44.58;99940.50;4303476;28;21050;-67
2022/05/14 09:53:31;;;;;;;11.77;2.20;;;;;;;16.18;43.38;99926.75;4250034;28;20238;-67
2022/05/14 09:56:17;;;;;;;8.70;1.73;;;;;;;16.28;44.33;99923.72;4267685;28;20889;-66
2022/05/14 09:58:53;;;;;;;13.73;2.20;;;;;;;16.19;45.07;99919.50;4266048;28;20230;-67
2022/05/14 10:01:44;;;;;;;12.97;2.20;;;;;;;16.35;42.62;99921.09;4276037;28;21823;-66
2022/05/14 10:04:28;;;;;;;11.00;2.43;;;;;;;16.42;42.05;99909.38;4307741;28;22404;-70
2022/05/14 10:07:18;;;;;;;13.43;2.50;;;;;;;16.84;42.30;99920.19;4242046;28;22682;-68
2022/05/14 10:09:57;;;;;;;13.57;2.30;;;;;;;16.86;43.19;99913.59;4253063;28;20231;-70
2022/05/14 10:12:45;;;;;;;10.10;2.50;;;;;;;16.61;43.31;99907.00;4255647;28;20416;-71
2022/05/14 10:15:30;;;;;;;12.53;2.50;;;;;;;16.61;43.28;99907.00;4252771;28;21200;-67
2022/05/14 10:18:32;;;;;;;8.00;1.83;;;;;;;16.57;44.46;99905.72;4267490;28;20314;-66
2022/05/14 10:21:13;;;;;;;12.87;3.00;;;;;;;16.56;44.04;99902.22;4252870;28;20297;-68
2022/05/14 10:26:46;;;;;;;12.43;2.50;;;;;;;16.64;43.73;99906.59;4266483;28;20231;-69
2022/05/14 10:29:31;;;;;;;7.50;2.13;;;;;;;16.46;45.63;99897.22;4273464;28;20311;-68
2022/05/14 10:32:04;;;;;;;6.23;1.93;;;;;;;16.24;45.33;99896.41;4242277;28;22574;-66
2022/05/14 10:34:49;;;;;;;12.20;2.20;;;;;;;16.32;46.51;99889.25;4248797;28;20232;-68
2022/05/14 10:37:23;;;;;;;12.50;2.53;;;;;;;16.49;45.57;99893.28;4260655;28;22382;-73
2022/05/14 10:39:59;;;;;;;12.83;2.23;;;;;;;16.58;44.00;99900.19;4267575;28;20697;-65
2022/05/14 10:42:43;;;;;;;5.77;2.17;;;;;;;16.69;42.12;99901.47;4237311;28;20230;-66
2022/05/14 10:45:36;;;;;;;7.53;2.13;;;;;;;16.74;42.39;99901.72;4233199;28;20232;-68
2022/05/14 10:48:42;;;;;;;10.80;3.20;;;;;;;16.79;43.39;99904.66;4250977;28;20232;-65
2022/05/14 10:51:11;;;;;;;12.27;2.60;;;;;;;16.55;43.39;99878.22;4237176;28;20242;-67
2022/05/14 10:53:42;;;;;;;8.27;2.10;;;;;;;16.19;43.49;99890.00;4227127;28;21053;-67
2022/05/14 10:56:14;;;;;;;11.97;2.80;;;;;;;15.91;43.78;99888.09;4224529;28;20232;-65
2022/05/14 10:58:52;;;;;;;15.63;2.33;;;;;;;16.08;44.05;99895.88;4232387;28;23894;-66
2022/05/14 11:01:29;;;;;;;8.03;1.83;;;;;;;16.23;43.47;99893.94;4253537;28;22038;-68
2022/05/14 11:04:11;;;;;;;5.77;2.50;;;;;;;16.62;42.76;99901.44;4240958;28;25426;-66
2022/05/14 11:06:59;;;;;;;13.63;2.23;;;;;;;16.67;41.90;99903.53;4256722;28;20234;-68
2022/05/14 11:09:35;;;;;;;10.47;2.40;;;;;;;16.90;42.66;99907.81;4266054;28;20285;-65
2022/05/14 11:12:27;;;;;;;12.43;2.20;;;;;;;17.14;42.50;99920.75;4270660;28;20237;-67
2022/05/14 11:14:58;;;;;;;11.60;2.10;;;;;;;17.08;41.09;99913.47;4257348;28;20235;-66
2022/05/14 11:17:34;;;;;;;9.83;2.60;;;;;;;17.21;42.81;99918.91;4249176;28;20228;-67
2022/05/14 11:20:11;;;;;;;8.77;2.20;;;;;;;17.00;42.12;99913.66;4243071;28;20227;-66
2022/05/14 11:22:49;;;;;;;11.60;2.73;;;;;;;16.63;41.90;99915.69;4245787;28;20346;-66
2022/05/14 11:25:22;;;;;;;10.10;2.27;;;;;;;16.25;43.53;99903.47;4231272;28;20267;-66
2022/05/14 11:28:18;;;;;;;8.07;2.23;;;;;;;16.34;43.12;99914.03;4258589;28;23885;-67
2022/05/14 11:30:47;;;;;;;5.17;1.63;;;;;;;16.16;44.04;99915.38;4239633;28;20237;-65
2022/05/14 11:33:27;;;;;;;11.30;2.67;;;;;;;16.08;44.71;99911.97;4259306;28;20236;-67
2022/05/14 11:35:55;;;;;;;9.53;2.00;;;;;;;16.34;44.46;99919.41;4238246;28;21711;-68
2022/05/14 11:38:25;;;;;;;7.80;2.67;;;;;;;16.43;43.21;99929.81;4249354;28;20227;-66
2022/05/14 11:41:00;;;;;;;6.83;2.13;;;;;;;16.42;43.75;99916.59;4242318;28;21162;-64
2022/05/14 11:43:27;;;;;;;9.20;2.20;;;;;;;16.70;43.72;99923.81;4274246;28;20649;-68
2022/05/14 11:46:20;;;;;;;11.10;2.40;;;;;;;16.95;43.53;99924.16;4259582;28;20450;-66
2022/05/14 11:48:52;;;;;;;7.23;1.90;;;;;;;16.94;42.46;99930.59;4250761;28;20233;-67
2022/05/14 11:51:28;;;;;;;9.67;2.23;;;;;;;16.64;41.66;99928.09;4241722;28;21387;-66
2022/05/14 11:54:03;;;;;;;7.57;2.10;;;;;;;16.60;42.35;99924.13;4246503;28;21393;-66
2022/05/14 11:56:45;;;;;;;9.60;2.00;;;;;;;16.58;42.66;99931.59;4238676;28;20245;-67
2022/05/14 11:59:29;;;;;;;5.93;2.07;;;;;;;16.54;43.83;99933.00;4251609;28;20238;-65
2022/05/14 12:01:59;;;;;;;9.27;2.20;;;;;;;16.63;44.22;99935.31;4227422;28;20231;-65
2022/05/14 12:04:33;;;;;;;8.90;2.27;;;;;;;16.49;44.31;99933.59;4244882;28;20228;-66
2022/05/14 12:07:23;;;;;;;7.53;2.00;;;;;;;16.54;43.99;99930.31;4236448;28;21696;-65